Alexandria, Indiana
Current Conditions -  °F | °C
As of 4:53 AM on Tuesday 27 Jan 2015 (Local Time) from KMIE Reporting Station
Overcast Overcast  
Wind Chill: -7°   Ceiling: 8000
Heat Index: -7°   Visibility: 10mi
Dew Point: -10°   Wind: 3mph
Humidity: 78%   Direction: 70°ENE
Pressure: 29.94"   Gusts: NA
Location:  40.26°N, 85.67°W
Report Text: KMIE 270953Z AUTO 07003KT 10SM SCT037 OVC080 M07/M10 A2994 RMK AO2 SLP148 T10671100
Loading
Personal Weather Stations






























Interactive Weather Map New forecast layout! Learn more

10-Day Weather Forecast

Advertisements
Track Severe Weather on mobile